Portada
METAR-TAF:

METAR-TAF

Aeroports :

Sanya, Xina

latitud: 18-18N, longitud: 109-24E, altitud: 27 m

Observació

L'informe es va fer fa 25 minuts, a les 14:00 UTC
Vent 10 kt del Est
Temperatura 25°C
Humitat 79%
Pressió 1017 hPa
Visibilitat 10 km o més
Cel ennuvolat a una alçada de 6600 ft

METAR: ZJSY 261400Z 09005MPS 9999 BKN066 25/21 Q1017 NOSIG

Hora: 22:25 (14:25 UTC)

Pronòstic

L'informe es va fer fa 5 hores i 19 minuts, a les 09:06 UTC
Pronòstic vàlid del 26 a les 12 UTC al 27 a les 12 UTC
Vent 8 kt del Est
Visibilitat 10 km o més
Escasses núvols a una alçada de 2000 ft

TAF: ZJSY 260906Z 2612/2712 09004MPS 9999 FEW020 TX30/2706Z TN20/2621Z

Observacions i pronòstics meteorològics de més de 4000 aeroports (METAR i TAF).

Les estacions disponibles són els punts grocs i vermells al mapa.

Posi el ratolí al punt desitjat per veure el nom de l'estació.

Feu clic per veure les observacions i els pronòstics meteorològics.

Per canviar el mapa: feu clic els botons verds amb una creu de color negre per apropar; al botó verd amb un guió per allunyar la imatge; o en les fletxes verdes per a mapes adjacents.


METAR-TAF: